sensor_id;sensor_type;location;lat;lon;timestamp;temperature;humidity
3818;DHT22;1924;48.078;11.516;2022-12-26T00:01:57;8.40;99.90
3818;DHT22;1924;48.078;11.516;2022-12-26T00:04:25;8.40;99.90
3818;DHT22;1924;48.078;11.516;2022-12-26T00:06:53;8.40;99.90
3818;DHT22;1924;48.078;11.516;2022-12-26T00:09:20;8.40;99.90
3818;DHT22;1924;48.078;11.516;2022-12-26T00:11:46;8.40;99.90
3818;DHT22;1924;48.078;11.516;2022-12-26T00:14:14;8.30;99.90
3818;DHT22;1924;48.078;11.516;2022-12-26T00:16:43;8.30;99.90
3818;DHT22;1924;48.078;11.516;2022-12-26T00:19:10;8.30;99.90
3818;DHT22;1924;48.078;11.516;2022-12-26T00:21:37;8.30;99.90
3818;DHT22;1924;48.078;11.516;2022-12-26T00:24:07;8.30;99.90
3818;DHT22;1924;48.078;11.516;2022-12-26T00:26:34;8.30;99.90
3818;DHT22;1924;48.078;11.516;2022-12-26T00:29:01;8.30;99.90
3818;DHT22;1924;48.078;11.516;2022-12-26T00:31:30;8.30;99.90
3818;DHT22;1924;48.078;11.516;2022-12-26T00:33:58;8.30;99.90
3818;DHT22;1924;48.078;11.516;2022-12-26T00:36:26;8.30;99.90
3818;DHT22;1924;48.078;11.516;2022-12-26T00:38:54;8.30;99.90
3818;DHT22;1924;48.078;11.516;2022-12-26T00:41:22;8.30;99.90
3818;DHT22;1924;48.078;11.516;2022-12-26T00:43:49;8.30;99.90
3818;DHT22;1924;48.078;11.516;2022-12-26T00:46:16;8.30;99.90
3818;DHT22;1924;48.078;11.516;2022-12-26T00:48:43;8.30;99.90
3818;DHT22;1924;48.078;11.516;2022-12-26T00:51:10;8.30;99.90
3818;DHT22;1924;48.078;11.516;2022-12-26T00:53:37;8.30;99.90
3818;DHT22;1924;48.078;11.516;2022-12-26T00:56:04;8.30;99.90
3818;DHT22;1924;48.078;11.516;2022-12-26T00:58:33;8.30;99.90
3818;DHT22;1924;48.078;11.516;2022-12-26T01:01:07;8.30;99.90
3818;DHT22;1924;48.078;11.516;2022-12-26T01:03:35;8.20;99.90
3818;DHT22;1924;48.078;11.516;2022-12-26T01:06:02;8.20;99.90
3818;DHT22;1924;48.078;11.516;2022-12-26T01:08:30;8.20;99.90
3818;DHT22;1924;48.078;11.516;2022-12-26T01:11:00;8.20;99.90
3818;DHT22;1924;48.078;11.516;2022-12-26T01:13:27;8.10;99.90
3818;DHT22;1924;48.078;11.516;2022-12-26T01:15:55;8.10;99.90
3818;DHT22;1924;48.078;11.516;2022-12-26T01:18:22;8.10;99.90
3818;DHT22;1924;48.078;11.516;2022-12-26T01:20:49;8.10;99.90
3818;DHT22;1924;48.078;11.516;2022-12-26T01:23:16;8.10;99.90
3818;DHT22;1924;48.078;11.516;2022-12-26T01:25:43;8.10;99.90
3818;DHT22;1924;48.078;11.516;2022-12-26T01:28:09;8.10;99.90
3818;DHT22;1924;48.078;11.516;2022-12-26T01:30:36;8.00;99.90
3818;DHT22;1924;48.078;11.516;2022-12-26T01:33:05;8.00;99.90
3818;DHT22;1924;48.078;11.516;2022-12-26T01:35:32;8.00;99.90
3818;DHT22;1924;48.078;11.516;2022-12-26T01:37:59;8.00;99.90
3818;DHT22;1924;48.078;11.516;2022-12-26T01:40:25;8.10;99.90
3818;DHT22;1924;48.078;11.516;2022-12-26T05:02:47;7.90;99.90
3818;DHT22;1924;48.078;11.516;2022-12-26T05:05:35;7.90;99.90
3818;DHT22;1924;48.078;11.516;2022-12-26T05:08:24;7.90;99.90
3818;DHT22;1924;48.078;11.516;2022-12-26T05:11:09;7.90;99.90
3818;DHT22;1924;48.078;11.516;2022-12-26T05:13:36;7.90;99.90
3818;DHT22;1924;48.078;11.516;2022-12-26T05:16:03;7.90;99.90
3818;DHT22;1924;48.078;11.516;2022-12-26T05:18:49;7.90;99.90
3818;DHT22;1924;48.078;11.516;2022-12-26T05:21:33;7.90;99.90
3818;DHT22;1924;48.078;11.516;2022-12-26T05:24:18;7.90;99.90
3818;DHT22;1924;48.078;11.516;2022-12-26T05:27:03;7.90;99.90
3818;DHT22;1924;48.078;11.516;2022-12-26T05:29:48;8.00;99.90
3818;DHT22;1924;48.078;11.516;2022-12-26T05:32:15;7.90;99.90
3818;DHT22;1924;48.078;11.516;2022-12-26T05:35:00;7.80;99.90
3818;DHT22;1924;48.078;11.516;2022-12-26T05:37:27;7.80;99.90
3818;DHT22;1924;48.078;11.516;2022-12-26T05:39:54;7.70;99.90
3818;DHT22;1924;48.078;11.516;2022-12-26T05:42:20;7.70;99.90
3818;DHT22;1924;48.078;11.516;2022-12-26T05:44:47;7.70;99.90
3818;DHT22;1924;48.078;11.516;2022-12-26T05:47:14;7.70;99.90
3818;DHT22;1924;48.078;11.516;2022-12-26T05:49:40;7.80;99.90
3818;DHT22;1924;48.078;11.516;2022-12-26T05:52:08;7.80;99.90
3818;DHT22;1924;48.078;11.516;2022-12-26T05:54:35;7.70;99.90
3818;DHT22;1924;48.078;11.516;2022-12-26T05:57:02;7.70;99.90
3818;DHT22;1924;48.078;11.516;2022-12-26T05:59:29;7.70;99.90
3818;DHT22;1924;48.078;11.516;2022-12-26T06:01:56;7.70;99.90
3818;DHT22;1924;48.078;11.516;2022-12-26T06:04:23;7.70;99.90
3818;DHT22;1924;48.078;11.516;2022-12-26T06:06:50;7.70;99.90
3818;DHT22;1924;48.078;11.516;2022-12-26T06:09:22;7.70;99.90
3818;DHT22;1924;48.078;11.516;2022-12-26T06:11:49;7.70;99.90
3818;DHT22;1924;48.078;11.516;2022-12-26T06:14:16;7.70;99.90
3818;DHT22;1924;48.078;11.516;2022-12-26T06:16:42;7.70;99.90
3818;DHT22;1924;48.078;11.516;2022-12-26T06:19:09;7.70;99.90
3818;DHT22;1924;48.078;11.516;2022-12-26T06:21:36;7.70;99.90
3818;DHT22;1924;48.078;11.516;2022-12-26T06:24:03;7.70;99.90
3818;DHT22;1924;48.078;11.516;2022-12-26T06:26:31;7.70;99.90
3818;DHT22;1924;48.078;11.516;2022-12-26T06:28:57;7.80;99.90
3818;DHT22;1924;48.078;11.516;2022-12-26T06:31:24;7.80;99.90
3818;DHT22;1924;48.078;11.516;2022-12-26T06:33:54;7.80;99.90
3818;DHT22;1924;48.078;11.516;2022-12-26T06:36:24;7.80;99.90
3818;DHT22;1924;48.078;11.516;2022-12-26T06:38:51;7.80;99.90
3818;DHT22;1924;48.078;11.516;2022-12-26T06:41:20;7.80;99.90
3818;DHT22;1924;48.078;11.516;2022-12-26T06:43:49;7.70;99.90
3818;DHT22;1924;48.078;11.516;2022-12-26T06:46:18;7.80;99.90
3818;DHT22;1924;48.078;11.516;2022-12-26T06:48:45;7.90;99.90
3818;DHT22;1924;48.078;11.516;2022-12-26T06:51:13;7.90;99.90
3818;DHT22;1924;48.078;11.516;2022-12-26T06:53:41;7.90;99.90
3818;DHT22;1924;48.078;11.516;2022-12-26T06:56:09;8.00;99.90
3818;DHT22;1924;48.078;11.516;2022-12-26T06:58:37;7.90;99.90
3818;DHT22;1924;48.078;11.516;2022-12-26T07:01:07;7.90;99.90
3818;DHT22;1924;48.078;11.516;2022-12-26T07:03:34;8.00;99.90
3818;DHT22;1924;48.078;11.516;2022-12-26T07:06:02;7.90;99.90
3818;DHT22;1924;48.078;11.516;2022-12-26T07:08:29;7.90;99.90
3818;DHT22;1924;48.078;11.516;2022-12-26T07:10:56;7.80;99.90
3818;DHT22;1924;48.078;11.516;2022-12-26T07:13:23;7.80;99.90
3818;DHT22;1924;48.078;11.516;2022-12-26T07:15:50;7.80;99.90
3818;DHT22;1924;48.078;11.516;2022-12-26T07:18:18;7.80;99.90
3818;DHT22;1924;48.078;11.516;2022-12-26T07:20:45;7.80;99.90
3818;DHT22;1924;48.078;11.516;2022-12-26T07:23:11;7.80;99.90
3818;DHT22;1924;48.078;11.516;2022-12-26T07:25:38;7.80;99.90
3818;DHT22;1924;48.078;11.516;2022-12-26T07:28:05;7.80;99.90
3818;DHT22;1924;48.078;11.516;2022-12-26T07:30:32;7.80;99.90
3818;DHT22;1924;48.078;11.516;2022-12-26T07:32:58;7.80;99.90
3818;DHT22;1924;48.078;11.516;2022-12-26T07:35:26;7.80;99.90
3818;DHT22;1924;48.078;11.516;2022-12-26T07:37:53;7.80;99.90
3818;DHT22;1924;48.078;11.516;2022-12-26T07:40:20;7.80;99.90
3818;DHT22;1924;48.078;11.516;2022-12-26T07:42:46;7.80;99.90
3818;DHT22;1924;48.078;11.516;2022-12-26T07:45:13;7.70;99.90
3818;DHT22;1924;48.078;11.516;2022-12-26T07:47:40;7.70;99.90
3818;DHT22;1924;48.078;11.516;2022-12-26T07:50:07;7.70;99.90
3818;DHT22;1924;48.078;11.516;2022-12-26T07:52:36;7.70;99.90
3818;DHT22;1924;48.078;11.516;2022-12-26T07:55:03;7.80;99.90
3818;DHT22;1924;48.078;11.516;2022-12-26T07:57:30;7.80;99.90
3818;DHT22;1924;48.078;11.516;2022-12-26T07:59:56;7.80;99.90
3818;DHT22;1924;48.078;11.516;2022-12-26T08:02:23;7.90;99.90
3818;DHT22;1924;48.078;11.516;2022-12-26T08:04:50;7.90;99.90
3818;DHT22;1924;48.078;11.516;2022-12-26T08:07:16;7.90;99.90
3818;DHT22;1924;48.078;11.516;2022-12-26T08:09:45;7.90;99.90
3818;DHT22;1924;48.078;11.516;2022-12-26T08:12:11;8.00;99.90
3818;DHT22;1924;48.078;11.516;2022-12-26T08:14:38;8.10;99.90
3818;DHT22;1924;48.078;11.516;2022-12-26T08:17:06;8.20;99.90
3818;DHT22;1924;48.078;11.516;2022-12-26T08:19:33;8.20;99.90
3818;DHT22;1924;48.078;11.516;2022-12-26T08:22:00;8.30;99.90
3818;DHT22;1924;48.078;11.516;2022-12-26T08:24:26;8.40;99.90
3818;DHT22;1924;48.078;11.516;2022-12-26T08:26:55;8.40;99.90
3818;DHT22;1924;48.078;11.516;2022-12-26T08:29:21;8.50;99.90
3818;DHT22;1924;48.078;11.516;2022-12-26T08:31:48;8.50;99.90
3818;DHT22;1924;48.078;11.516;2022-12-26T08:34:15;8.60;99.90
3818;DHT22;1924;48.078;11.516;2022-12-26T08:36:42;8.70;99.90
3818;DHT22;1924;48.078;11.516;2022-12-26T08:39:08;8.70;99.90
3818;DHT22;1924;48.078;11.516;2022-12-26T08:41:35;8.80;99.90
3818;DHT22;1924;48.078;11.516;2022-12-26T08:44:04;8.90;99.90
3818;DHT22;1924;48.078;11.516;2022-12-26T08:46:30;9.10;99.90
3818;DHT22;1924;48.078;11.516;2022-12-26T08:48:57;9.20;99.90
3818;DHT22;1924;48.078;11.516;2022-12-26T08:51:24;9.20;99.90
3818;DHT22;1924;48.078;11.516;2022-12-26T08:53:53;9.30;99.90
3818;DHT22;1924;48.078;11.516;2022-12-26T08:56:21;9.40;99.90
3818;DHT22;1924;48.078;11.516;2022-12-26T08:58:49;9.40;99.90
3818;DHT22;1924;48.078;11.516;2022-12-26T09:01:18;9.50;99.90
3818;DHT22;1924;48.078;11.516;2022-12-26T09:03:46;9.60;99.90
3818;DHT22;1924;48.078;11.516;2022-12-26T09:06:14;9.60;99.90
3818;DHT22;1924;48.078;11.516;2022-12-26T09:08:41;9.60;99.90
3818;DHT22;1924;48.078;11.516;2022-12-26T09:11:11;9.70;99.90
3818;DHT22;1924;48.078;11.516;2022-12-26T09:13:39;9.80;99.90
3818;DHT22;1924;48.078;11.516;2022-12-26T09:16:08;9.90;99.90
3818;DHT22;1924;48.078;11.516;2022-12-26T09:18:37;9.90;99.90
3818;DHT22;1924;48.078;11.516;2022-12-26T09:21:05;10.00;99.90
3818;DHT22;1924;48.078;11.516;2022-12-26T09:23:32;10.10;99.90
3818;DHT22;1924;48.078;11.516;2022-12-26T09:26:04;10.10;99.90
3818;DHT22;1924;48.078;11.516;2022-12-26T09:28:32;10.20;99.90
3818;DHT22;1924;48.078;11.516;2022-12-26T09:30:59;10.30;99.90
3818;DHT22;1924;48.078;11.516;2022-12-26T09:33:26;10.30;99.90
3818;DHT22;1924;48.078;11.516;2022-12-26T09:35:55;10.20;99.90
3818;DHT22;1924;48.078;11.516;2022-12-26T09:38:22;10.20;99.90
3818;DHT22;1924;48.078;11.516;2022-12-26T09:40:57;10.30;99.90
3818;DHT22;1924;48.078;11.516;2022-12-26T09:43:36;10.40;99.90
3818;DHT22;1924;48.078;11.516;2022-12-26T09:46:12;10.50;99.90
3818;DHT22;1924;48.078;11.516;2022-12-26T09:49:02;10.40;99.90
3818;DHT22;1924;48.078;11.516;2022-12-26T09:51:32;10.20;99.90
3818;DHT22;1924;48.078;11.516;2022-12-26T09:54:01;10.20;99.90
3818;DHT22;1924;48.078;11.516;2022-12-26T09:56:30;10.20;99.90
3818;DHT22;1924;48.078;11.516;2022-12-26T09:59:01;10.20;99.90
3818;DHT22;1924;48.078;11.516;2022-12-26T10:01:34;10.10;99.90
3818;DHT22;1924;48.078;11.516;2022-12-26T10:04:07;10.20;99.90
3818;DHT22;1924;48.078;11.516;2022-12-26T10:06:39;10.20;99.90
3818;DHT22;1924;48.078;11.516;2022-12-26T10:09:18;10.20;99.90
3818;DHT22;1924;48.078;11.516;2022-12-26T10:11:58;10.30;99.90
3818;DHT22;1924;48.078;11.516;2022-12-26T10:14:34;10.40;99.90
3818;DHT22;1924;48.078;11.516;2022-12-26T10:17:07;10.50;99.90
3818;DHT22;1924;48.078;11.516;2022-12-26T10:19:55;10.60;99.90
3818;DHT22;1924;48.078;11.516;2022-12-26T10:22:38;10.60;99.90
3818;DHT22;1924;48.078;11.516;2022-12-26T10:25:15;10.70;99.90
3818;DHT22;1924;48.078;11.516;2022-12-26T10:27:45;10.80;99.90
3818;DHT22;1924;48.078;11.516;2022-12-26T10:30:17;10.90;99.90
3818;DHT22;1924;48.078;11.516;2022-12-26T10:32:48;11.10;99.90
3818;DHT22;1924;48.078;11.516;2022-12-26T10:35:22;11.30;99.90
3818;DHT22;1924;48.078;11.516;2022-12-26T10:37:54;11.40;99.90
3818;DHT22;1924;48.078;11.516;2022-12-26T10:40:27;11.40;99.90
3818;DHT22;1924;48.078;11.516;2022-12-26T10:42:58;11.50;99.90
3818;DHT22;1924;48.078;11.516;2022-12-26T10:45:31;11.50;99.90
3818;DHT22;1924;48.078;11.516;2022-12-26T10:48:01;11.40;99.90
3818;DHT22;1924;48.078;11.516;2022-12-26T10:50:30;11.40;99.90
3818;DHT22;1924;48.078;11.516;2022-12-26T10:52:59;11.50;99.90
3818;DHT22;1924;48.078;11.516;2022-12-26T10:55:29;11.50;99.90
3818;DHT22;1924;48.078;11.516;2022-12-26T10:57:58;11.60;99.90
3818;DHT22;1924;48.078;11.516;2022-12-26T11:00:28;11.70;99.90
3818;DHT22;1924;48.078;11.516;2022-12-26T11:03:02;11.80;99.90
3818;DHT22;1924;48.078;11.516;2022-12-26T11:05:31;11.90;99.90
3818;DHT22;1924;48.078;11.516;2022-12-26T11:08:07;11.90;99.90
3818;DHT22;1924;48.078;11.516;2022-12-26T11:10:35;12.00;99.90
3818;DHT22;1924;48.078;11.516;2022-12-26T11:13:05;11.90;99.90
3818;DHT22;1924;48.078;11.516;2022-12-26T11:15:36;12.00;99.90
3818;DHT22;1924;48.078;11.516;2022-12-26T11:18:14;11.90;99.90
3818;DHT22;1924;48.078;11.516;2022-12-26T11:20:46;11.90;99.90
3818;DHT22;1924;48.078;11.516;2022-12-26T11:23:25;11.80;99.90
3818;DHT22;1924;48.078;11.516;2022-12-26T11:25:53;11.90;99.90
3818;DHT22;1924;48.078;11.516;2022-12-26T11:28:31;11.90;99.90
3818;DHT22;1924;48.078;11.516;2022-12-26T11:30:59;11.80;99.90
3818;DHT22;1924;48.078;11.516;2022-12-26T11:33:29;11.80;99.90
3818;DHT22;1924;48.078;11.516;2022-12-26T11:36:02;11.90;99.90
3818;DHT22;1924;48.078;11.516;2022-12-26T11:38:33;11.80;99.90
3818;DHT22;1924;48.078;11.516;2022-12-26T11:41:11;11.70;99.90
3818;DHT22;1924;48.078;11.516;2022-12-26T11:44:01;11.70;99.90
3818;DHT22;1924;48.078;11.516;2022-12-26T11:46:36;11.70;99.90
3818;DHT22;1924;48.078;11.516;2022-12-26T11:49:04;11.70;99.90
3818;DHT22;1924;48.078;11.516;2022-12-26T11:51:38;11.70;99.90
3818;DHT22;1924;48.078;11.516;2022-12-26T11:54:20;11.70;99.90
3818;DHT22;1924;48.078;11.516;2022-12-26T11:56:48;11.70;99.90
3818;DHT22;1924;48.078;11.516;2022-12-26T11:59:17;11.70;99.90
3818;DHT22;1924;48.078;11.516;2022-12-26T12:01:45;11.70;99.90
3818;DHT22;1924;48.078;11.516;2022-12-26T12:04:12;11.80;99.90
3818;DHT22;1924;48.078;11.516;2022-12-26T12:06:50;11.90;99.90
3818;DHT22;1924;48.078;11.516;2022-12-26T12:09:30;11.90;99.90
3818;DHT22;1924;48.078;11.516;2022-12-26T12:12:12;12.00;99.90
3818;DHT22;1924;48.078;11.516;2022-12-26T12:14:50;12.10;99.90
3818;DHT22;1924;48.078;11.516;2022-12-26T12:17:24;12.10;99.90
3818;DHT22;1924;48.078;11.516;2022-12-26T12:20:02;12.10;99.90
3818;DHT22;1924;48.078;11.516;2022-12-26T12:23:04;12.20;99.90
3818;DHT22;1924;48.078;11.516;2022-12-26T12:25:40;12.20;99.90
3818;DHT22;1924;48.078;11.516;2022-12-26T12:28:30;12.10;99.90
3818;DHT22;1924;48.078;11.516;2022-12-26T12:31:05;12.00;99.90
3818;DHT22;1924;48.078;11.516;2022-12-26T12:33:43;11.90;99.90
3818;DHT22;1924;48.078;11.516;2022-12-26T12:36:16;11.90;99.90
3818;DHT22;1924;48.078;11.516;2022-12-26T12:38:53;11.80;99.90
3818;DHT22;1924;48.078;11.516;2022-12-26T12:41:34;11.60;99.90
3818;DHT22;1924;48.078;11.516;2022-12-26T12:44:09;11.40;99.90
3818;DHT22;1924;48.078;11.516;2022-12-26T12:46:44;11.20;99.90
3818;DHT22;1924;48.078;11.516;2022-12-26T12:49:20;11.10;99.90
3818;DHT22;1924;48.078;11.516;2022-12-26T12:51:57;11.00;99.90
3818;DHT22;1924;48.078;11.516;2022-12-26T12:54:43;10.90;99.90
3818;DHT22;1924;48.078;11.516;2022-12-26T12:57:22;10.80;99.90
3818;DHT22;1924;48.078;11.516;2022-12-26T13:00:02;10.70;99.90
3818;DHT22;1924;48.078;11.516;2022-12-26T13:02:40;10.60;99.90
3818;DHT22;1924;48.078;11.516;2022-12-26T13:05:18;10.60;99.90
3818;DHT22;1924;48.078;11.516;2022-12-26T13:07:50;10.50;99.90
3818;DHT22;1924;48.078;11.516;2022-12-26T13:10:20;10.50;99.90
3818;DHT22;1924;48.078;11.516;2022-12-26T13:12:50;10.40;99.90
3818;DHT22;1924;48.078;11.516;2022-12-26T13:15:25;10.40;99.90
3818;DHT22;1924;48.078;11.516;2022-12-26T13:17:58;10.40;99.90
3818;DHT22;1924;48.078;11.516;2022-12-26T13:20:31;10.30;99.90
3818;DHT22;1924;48.078;11.516;2022-12-26T13:23:02;10.30;99.90
3818;DHT22;1924;48.078;11.516;2022-12-26T13:25:49;10.30;99.90
3818;DHT22;1924;48.078;11.516;2022-12-26T13:28:26;10.30;99.90
3818;DHT22;1924;48.078;11.516;2022-12-26T13:30:54;10.30;99.90
3818;DHT22;1924;48.078;11.516;2022-12-26T13:33:21;10.30;99.90
3818;DHT22;1924;48.078;11.516;2022-12-26T13:35:54;10.40;99.90
3818;DHT22;1924;48.078;11.516;2022-12-26T13:38:22;10.20;99.90
3818;DHT22;1924;48.078;11.516;2022-12-26T13:40:54;10.10;99.90
3818;DHT22;1924;48.078;11.516;2022-12-26T13:44:02;10.10;99.90
3818;DHT22;1924;48.078;11.516;2022-12-26T13:46:37;9.90;99.90
3818;DHT22;1924;48.078;11.516;2022-12-26T13:49:30;9.90;99.90
3818;DHT22;1924;48.078;11.516;2022-12-26T13:52:31;10.00;99.90
3818;DHT22;1924;48.078;11.516;2022-12-26T13:55:18;9.90;99.90
3818;DHT22;1924;48.078;11.516;2022-12-26T13:57:45;9.90;99.90
3818;DHT22;1924;48.078;11.516;2022-12-26T14:00:18;9.90;99.90
3818;DHT22;1924;48.078;11.516;2022-12-26T14:05:53;9.90;99.90
3818;DHT22;1924;48.078;11.516;2022-12-26T14:08:29;9.90;99.90
3818;DHT22;1924;48.078;11.516;2022-12-26T14:11:08;10.00;99.90
3818;DHT22;1924;48.078;11.516;2022-12-26T14:13:54;9.90;99.90
3818;DHT22;1924;48.078;11.516;2022-12-26T14:16:29;9.90;99.90
3818;DHT22;1924;48.078;11.516;2022-12-26T14:19:04;9.80;99.90
3818;DHT22;1924;48.078;11.516;2022-12-26T14:21:42;9.80;99.90
3818;DHT22;1924;48.078;11.516;2022-12-26T14:24:24;9.80;99.90
3818;DHT22;1924;48.078;11.516;2022-12-26T14:26:57;9.80;99.90
3818;DHT22;1924;48.078;11.516;2022-12-26T14:29:30;9.60;99.90
3818;DHT22;1924;48.078;11.516;2022-12-26T14:32:10;9.60;99.90
3818;DHT22;1924;48.078;11.516;2022-12-26T14:34:50;9.60;99.90
3818;DHT22;1924;48.078;11.516;2022-12-26T14:37:23;9.70;99.90
3818;DHT22;1924;48.078;11.516;2022-12-26T14:40:04;9.70;99.90
3818;DHT22;1924;48.078;11.516;2022-12-26T14:43:00;9.70;99.90
3818;DHT22;1924;48.078;11.516;2022-12-26T14:45:46;9.60;99.90
3818;DHT22;1924;48.078;11.516;2022-12-26T14:48:44;9.70;99.90
3818;DHT22;1924;48.078;11.516;2022-12-26T14:51:46;9.60;99.90
3818;DHT22;1924;48.078;11.516;2022-12-26T14:54:35;9.60;99.90
3818;DHT22;1924;48.078;11.516;2022-12-26T15:00:14;9.60;99.90
3818;DHT22;1924;48.078;11.516;2022-12-26T15:02:43;9.60;99.90
3818;DHT22;1924;48.078;11.516;2022-12-26T15:05:14;9.50;99.90
3818;DHT22;1924;48.078;11.516;2022-12-26T15:14:08;9.50;99.90
3818;DHT22;1924;48.078;11.516;2022-12-26T15:16:52;9.40;99.90
3818;DHT22;1924;48.078;11.516;2022-12-26T15:22:36;9.50;99.90
3818;DHT22;1924;48.078;11.516;2022-12-26T15:28:34;9.50;99.90
3818;DHT22;1924;48.078;11.516;2022-12-26T15:34:18;9.40;99.90
3818;DHT22;1924;48.078;11.516;2022-12-26T15:36:53;9.40;99.90
3818;DHT22;1924;48.078;11.516;2022-12-26T15:39:28;9.40;99.90
3818;DHT22;1924;48.078;11.516;2022-12-26T15:42:11;9.30;99.90
3818;DHT22;1924;48.078;11.516;2022-12-26T15:44:46;9.30;99.90
3818;DHT22;1924;48.078;11.516;2022-12-26T15:47:17;9.20;99.90
3818;DHT22;1924;48.078;11.516;2022-12-26T15:49:57;9.20;99.90
3818;DHT22;1924;48.078;11.516;2022-12-26T15:52:35;9.20;99.90
3818;DHT22;1924;48.078;11.516;2022-12-26T15:55:31;9.20;99.90
3818;DHT22;1924;48.078;11.516;2022-12-26T15:58:05;9.20;99.90
3818;DHT22;1924;48.078;11.516;2022-12-26T16:00:37;9.20;99.90
3818;DHT22;1924;48.078;11.516;2022-12-26T16:03:21;9.10;99.90
3818;DHT22;1924;48.078;11.516;2022-12-26T16:05:53;9.10;99.90
3818;DHT22;1924;48.078;11.516;2022-12-26T16:08:54;9.10;99.90
3818;DHT22;1924;48.078;11.516;2022-12-26T16:11:29;9.00;99.90
3818;DHT22;1924;48.078;11.516;2022-12-26T16:13:58;9.10;99.90
3818;DHT22;1924;48.078;11.516;2022-12-26T16:16:31;9.10;99.90
3818;DHT22;1924;48.078;11.516;2022-12-26T16:19:14;9.10;99.90
3818;DHT22;1924;48.078;11.516;2022-12-26T16:21:44;9.00;99.90
3818;DHT22;1924;48.078;11.516;2022-12-26T16:24:28;9.00;99.90
3818;DHT22;1924;48.078;11.516;2022-12-26T16:27:01;9.00;99.90
3818;DHT22;1924;48.078;11.516;2022-12-26T16:29:29;9.00;99.90
3818;DHT22;1924;48.078;11.516;2022-12-26T16:32:01;9.00;99.90
3818;DHT22;1924;48.078;11.516;2022-12-26T16:34:32;8.90;99.90
3818;DHT22;1924;48.078;11.516;2022-12-26T16:36:59;9.00;99.90
3818;DHT22;1924;48.078;11.516;2022-12-26T16:39:27;9.10;99.90
3818;DHT22;1924;48.078;11.516;2022-12-26T16:42:01;9.00;99.90
3818;DHT22;1924;48.078;11.516;2022-12-26T16:44:33;9.10;99.90
3818;DHT22;1924;48.078;11.516;2022-12-26T16:47:02;9.20;99.90
3818;DHT22;1924;48.078;11.516;2022-12-26T16:49:30;9.00;99.90
3818;DHT22;1924;48.078;11.516;2022-12-26T16:51:57;9.10;99.90
3818;DHT22;1924;48.078;11.516;2022-12-26T16:54:27;9.10;99.90
3818;DHT22;1924;48.078;11.516;2022-12-26T16:57:03;9.10;99.90
3818;DHT22;1924;48.078;11.516;2022-12-26T16:59:39;9.10;99.90
3818;DHT22;1924;48.078;11.516;2022-12-26T17:02:16;9.10;99.90
3818;DHT22;1924;48.078;11.516;2022-12-26T17:04:50;9.10;99.90
3818;DHT22;1924;48.078;11.516;2022-12-26T17:07:18;9.10;99.90
3818;DHT22;1924;48.078;11.516;2022-12-26T17:09:48;9.20;99.90
3818;DHT22;1924;48.078;11.516;2022-12-26T17:12:20;9.20;99.90
3818;DHT22;1924;48.078;11.516;2022-12-26T17:14:49;9.20;99.90
3818;DHT22;1924;48.078;11.516;2022-12-26T17:17:29;9.10;99.90
3818;DHT22;1924;48.078;11.516;2022-12-26T17:19:58;9.00;99.90
3818;DHT22;1924;48.078;11.516;2022-12-26T17:22:44;9.00;99.90
3818;DHT22;1924;48.078;11.516;2022-12-26T17:25:23;9.00;99.90
3818;DHT22;1924;48.078;11.516;2022-12-26T17:28:21;9.00;99.90
3818;DHT22;1924;48.078;11.516;2022-12-26T17:30:50;9.00;99.90
3818;DHT22;1924;48.078;11.516;2022-12-26T17:33:19;8.90;99.90
3818;DHT22;1924;48.078;11.516;2022-12-26T17:35:49;8.90;99.90
3818;DHT22;1924;48.078;11.516;2022-12-26T17:38:19;8.90;99.90
3818;DHT22;1924;48.078;11.516;2022-12-26T17:40:47;8.90;99.90
3818;DHT22;1924;48.078;11.516;2022-12-26T17:43:22;8.90;99.90
3818;DHT22;1924;48.078;11.516;2022-12-26T17:45:50;8.90;99.90
3818;DHT22;1924;48.078;11.516;2022-12-26T17:48:16;8.90;99.90
3818;DHT22;1924;48.078;11.516;2022-12-26T17:50:46;9.00;99.90
3818;DHT22;1924;48.078;11.516;2022-12-26T17:53:22;9.00;99.90
3818;DHT22;1924;48.078;11.516;2022-12-26T17:55:51;9.00;99.90
3818;DHT22;1924;48.078;11.516;2022-12-26T17:58:18;9.00;99.90
3818;DHT22;1924;48.078;11.516;2022-12-26T18:00:46;9.00;99.90
3818;DHT22;1924;48.078;11.516;2022-12-26T18:03:13;8.90;99.90
3818;DHT22;1924;48.078;11.516;2022-12-26T18:05:40;8.90;99.90
3818;DHT22;1924;48.078;11.516;2022-12-26T18:08:09;9.00;99.90
3818;DHT22;1924;48.078;11.516;2022-12-26T18:10:38;9.00;99.90
3818;DHT22;1924;48.078;11.516;2022-12-26T18:13:08;8.90;99.90
3818;DHT22;1924;48.078;11.516;2022-12-26T18:15:40;9.00;99.90
3818;DHT22;1924;48.078;11.516;2022-12-26T18:18:17;9.00;99.90
3818;DHT22;1924;48.078;11.516;2022-12-26T18:20:46;9.10;99.90
3818;DHT22;1924;48.078;11.516;2022-12-26T18:23:15;9.10;99.90
3818;DHT22;1924;48.078;11.516;2022-12-26T18:25:41;9.00;99.90
3818;DHT22;1924;48.078;11.516;2022-12-26T18:28:10;9.00;99.90
3818;DHT22;1924;48.078;11.516;2022-12-26T18:30:37;9.00;99.90
3818;DHT22;1924;48.078;11.516;2022-12-26T18:33:04;9.10;99.90
3818;DHT22;1924;48.078;11.516;2022-12-26T18:35:32;9.00;99.90
3818;DHT22;1924;48.078;11.516;2022-12-26T18:37:59;9.00;99.90
3818;DHT22;1924;48.078;11.516;2022-12-26T18:40:32;8.90;99.90
3818;DHT22;1924;48.078;11.516;2022-12-26T18:42:59;8.90;99.90
3818;DHT22;1924;48.078;11.516;2022-12-26T18:45:26;8.80;99.90
3818;DHT22;1924;48.078;11.516;2022-12-26T18:47:53;8.80;99.90
3818;DHT22;1924;48.078;11.516;2022-12-26T18:50:20;8.80;99.90
3818;DHT22;1924;48.078;11.516;2022-12-26T18:52:48;8.80;99.90
3818;DHT22;1924;48.078;11.516;2022-12-26T18:55:15;8.90;99.90
3818;DHT22;1924;48.078;11.516;2022-12-26T18:57:41;8.80;99.90
3818;DHT22;1924;48.078;11.516;2022-12-26T19:00:13;8.80;99.90
3818;DHT22;1924;48.078;11.516;2022-12-26T19:02:40;8.80;99.90
3818;DHT22;1924;48.078;11.516;2022-12-26T19:05:14;8.80;99.90
3818;DHT22;1924;48.078;11.516;2022-12-26T19:07:41;8.70;99.90
3818;DHT22;1924;48.078;11.516;2022-12-26T19:10:10;8.70;99.90
3818;DHT22;1924;48.078;11.516;2022-12-26T19:12:37;8.60;99.90
3818;DHT22;1924;48.078;11.516;2022-12-26T19:15:04;8.70;99.90
3818;DHT22;1924;48.078;11.516;2022-12-26T19:17:31;8.80;99.90
3818;DHT22;1924;48.078;11.516;2022-12-26T19:19:58;8.80;99.90
3818;DHT22;1924;48.078;11.516;2022-12-26T19:22:24;8.70;99.90
3818;DHT22;1924;48.078;11.516;2022-12-26T19:24:51;8.70;99.90
3818;DHT22;1924;48.078;11.516;2022-12-26T19:27:20;8.70;99.90
3818;DHT22;1924;48.078;11.516;2022-12-26T19:29:47;8.70;99.90
3818;DHT22;1924;48.078;11.516;2022-12-26T19:32:13;8.80;99.90
3818;DHT22;1924;48.078;11.516;2022-12-26T19:34:40;8.70;99.90
3818;DHT22;1924;48.078;11.516;2022-12-26T19:37:07;8.70;99.90
3818;DHT22;1924;48.078;11.516;2022-12-26T19:39:34;8.60;99.90
3818;DHT22;1924;48.078;11.516;2022-12-26T19:42:01;8.60;99.90
3818;DHT22;1924;48.078;11.516;2022-12-26T19:44:29;8.60;99.90
3818;DHT22;1924;48.078;11.516;2022-12-26T19:46:56;8.60;99.90
3818;DHT22;1924;48.078;11.516;2022-12-26T19:49:23;8.60;99.90
3818;DHT22;1924;48.078;11.516;2022-12-26T19:51:49;8.50;99.90
3818;DHT22;1924;48.078;11.516;2022-12-26T19:54:16;8.50;99.90
3818;DHT22;1924;48.078;11.516;2022-12-26T19:56:43;8.50;99.90
3818;DHT22;1924;48.078;11.516;2022-12-26T19:59:10;8.50;99.90
3818;DHT22;1924;48.078;11.516;2022-12-26T20:01:39;8.50;99.90
3818;DHT22;1924;48.078;11.516;2022-12-26T20:04:06;8.50;99.90
3818;DHT22;1924;48.078;11.516;2022-12-26T20:06:35;8.40;99.90
3818;DHT22;1924;48.078;11.516;2022-12-26T20:09:04;8.50;99.90